sensor_id;sensor_type;location;lat;lon;timestamp;P1;durP1;ratioP1;P2;durP2;ratioP2
48765;SDS011;65794;51.836;5.002;2023-07-28T00:00:42;16.35;;;6.78;;
48765;SDS011;65794;51.836;5.002;2023-07-28T00:03:09;13.93;;;6.15;;
48765;SDS011;65794;51.836;5.002;2023-07-28T00:05:36;14.13;;;6.57;;
48765;SDS011;65794;51.836;5.002;2023-07-28T00:08:03;13.68;;;5.40;;
48765;SDS011;65794;51.836;5.002;2023-07-28T00:10:30;15.88;;;7.13;;
48765;SDS011;65794;51.836;5.002;2023-07-28T00:12:58;15.50;;;6.43;;
48765;SDS011;65794;51.836;5.002;2023-07-28T00:15:25;15.93;;;6.88;;
48765;SDS011;65794;51.836;5.002;2023-07-28T00:17:52;12.05;;;6.03;;
48765;SDS011;65794;51.836;5.002;2023-07-28T00:20:19;16.90;;;7.22;;
48765;SDS011;65794;51.836;5.002;2023-07-28T00:22:46;15.52;;;6.82;;
48765;SDS011;65794;51.836;5.002;2023-07-28T00:25:12;12.98;;;5.65;;
48765;SDS011;65794;51.836;5.002;2023-07-28T00:27:39;16.52;;;7.18;;
48765;SDS011;65794;51.836;5.002;2023-07-28T00:30:06;12.32;;;6.55;;
48765;SDS011;65794;51.836;5.002;2023-07-28T00:32:33;16.38;;;6.55;;
48765;SDS011;65794;51.836;5.002;2023-07-28T00:35:01;16.40;;;6.43;;
48765;SDS011;65794;51.836;5.002;2023-07-28T00:37:28;19.13;;;6.45;;
48765;SDS011;65794;51.836;5.002;2023-07-28T00:39:54;17.02;;;6.35;;
48765;SDS011;65794;51.836;5.002;2023-07-28T00:42:21;16.20;;;5.88;;
48765;SDS011;65794;51.836;5.002;2023-07-28T00:44:48;19.40;;;5.43;;
48765;SDS011;65794;51.836;5.002;2023-07-28T00:47:15;12.90;;;5.28;;
48765;SDS011;65794;51.836;5.002;2023-07-28T00:49:42;15.52;;;5.20;;
48765;SDS011;65794;51.836;5.002;2023-07-28T00:52:09;15.45;;;5.45;;
48765;SDS011;65794;51.836;5.002;2023-07-28T00:54:36;14.00;;;5.47;;
48765;SDS011;65794;51.836;5.002;2023-07-28T00:57:03;12.25;;;5.30;;
48765;SDS011;65794;51.836;5.002;2023-07-28T00:59:31;21.98;;;5.97;;
48765;SDS011;65794;51.836;5.002;2023-07-28T01:01:58;15.70;;;5.90;;
48765;SDS011;65794;51.836;5.002;2023-07-28T01:04:25;16.33;;;5.82;;
48765;SDS011;65794;51.836;5.002;2023-07-28T01:09:20;18.17;;;6.35;;
48765;SDS011;65794;51.836;5.002;2023-07-28T01:11:57;12.52;;;5.70;;
48765;SDS011;65794;51.836;5.002;2023-07-28T01:14:25;16.52;;;6.00;;
48765;SDS011;65794;51.836;5.002;2023-07-28T01:16:51;22.73;;;6.85;;
48765;SDS011;65794;51.836;5.002;2023-07-28T01:19:19;16.92;;;6.20;;
48765;SDS011;65794;51.836;5.002;2023-07-28T01:21:48;22.08;;;5.95;;
48765;SDS011;65794;51.836;5.002;2023-07-28T01:26:55;15.20;;;6.18;;
48765;SDS011;65794;51.836;5.002;2023-07-28T01:29:22;17.92;;;6.88;;
48765;SDS011;65794;51.836;5.002;2023-07-28T01:31:51;18.90;;;6.97;;
48765;SDS011;65794;51.836;5.002;2023-07-28T01:34:18;24.25;;;7.32;;
48765;SDS011;65794;51.836;5.002;2023-07-28T01:36:45;21.30;;;6.82;;
48765;SDS011;65794;51.836;5.002;2023-07-28T01:39:12;23.70;;;7.55;;
48765;SDS011;65794;51.836;5.002;2023-07-28T01:41:39;24.45;;;7.57;;
48765;SDS011;65794;51.836;5.002;2023-07-28T01:44:10;22.40;;;7.97;;
48765;SDS011;65794;51.836;5.002;2023-07-28T01:46:38;29.30;;;8.27;;
48765;SDS011;65794;51.836;5.002;2023-07-28T01:49:06;28.67;;;8.30;;
48765;SDS011;65794;51.836;5.002;2023-07-28T01:51:33;21.63;;;7.82;;
48765;SDS011;65794;51.836;5.002;2023-07-28T01:53:59;21.33;;;7.22;;
48765;SDS011;65794;51.836;5.002;2023-07-28T01:56:27;22.48;;;8.15;;
48765;SDS011;65794;51.836;5.002;2023-07-28T01:58:53;19.90;;;7.70;;
48765;SDS011;65794;51.836;5.002;2023-07-28T02:01:20;28.27;;;8.55;;
48765;SDS011;65794;51.836;5.002;2023-07-28T02:03:47;24.65;;;8.30;;
48765;SDS011;65794;51.836;5.002;2023-07-28T02:06:15;25.90;;;8.45;;
48765;SDS011;65794;51.836;5.002;2023-07-28T02:08:42;25.73;;;7.82;;
48765;SDS011;65794;51.836;5.002;2023-07-28T02:11:08;24.33;;;8.10;;
48765;SDS011;65794;51.836;5.002;2023-07-28T02:13:36;23.02;;;8.15;;
48765;SDS011;65794;51.836;5.002;2023-07-28T02:16:03;26.80;;;8.45;;
48765;SDS011;65794;51.836;5.002;2023-07-28T02:18:30;33.13;;;9.20;;
48765;SDS011;65794;51.836;5.002;2023-07-28T02:20:57;22.50;;;8.50;;
48765;SDS011;65794;51.836;5.002;2023-07-28T02:23:24;22.77;;;8.23;;
48765;SDS011;65794;51.836;5.002;2023-07-28T02:25:51;24.20;;;8.23;;
48765;SDS011;65794;51.836;5.002;2023-07-28T02:28:18;24.10;;;8.23;;
48765;SDS011;65794;51.836;5.002;2023-07-28T02:30:44;28.73;;;8.25;;
48765;SDS011;65794;51.836;5.002;2023-07-28T02:33:11;32.78;;;8.45;;
48765;SDS011;65794;51.836;5.002;2023-07-28T02:35:38;22.15;;;7.97;;
48765;SDS011;65794;51.836;5.002;2023-07-28T02:38:05;25.15;;;8.18;;
48765;SDS011;65794;51.836;5.002;2023-07-28T02:40:32;25.33;;;8.23;;
48765;SDS011;65794;51.836;5.002;2023-07-28T02:42:59;24.70;;;9.13;;
48765;SDS011;65794;51.836;5.002;2023-07-28T02:45:26;25.23;;;7.95;;
48765;SDS011;65794;51.836;5.002;2023-07-28T02:47:53;26.83;;;7.75;;
48765;SDS011;65794;51.836;5.002;2023-07-28T02:50:22;24.50;;;7.97;;
48765;SDS011;65794;51.836;5.002;2023-07-28T02:52:50;21.42;;;7.90;;
48765;SDS011;65794;51.836;5.002;2023-07-28T02:55:17;30.80;;;8.10;;
48765;SDS011;65794;51.836;5.002;2023-07-28T02:57:44;23.15;;;8.20;;
48765;SDS011;65794;51.836;5.002;2023-07-28T03:00:11;25.65;;;8.80;;
48765;SDS011;65794;51.836;5.002;2023-07-28T03:02:38;25.27;;;8.77;;
48765;SDS011;65794;51.836;5.002;2023-07-28T03:05:06;32.03;;;8.55;;
48765;SDS011;65794;51.836;5.002;2023-07-28T03:07:36;25.35;;;8.32;;
48765;SDS011;65794;51.836;5.002;2023-07-28T03:10:06;27.88;;;8.55;;
48765;SDS011;65794;51.836;5.002;2023-07-28T03:12:35;18.73;;;7.90;;
48765;SDS011;65794;51.836;5.002;2023-07-28T03:15:03;32.15;;;7.97;;
48765;SDS011;65794;51.836;5.002;2023-07-28T03:17:30;26.75;;;8.55;;
48765;SDS011;65794;51.836;5.002;2023-07-28T03:19:57;23.58;;;8.20;;
48765;SDS011;65794;51.836;5.002;2023-07-28T03:22:24;28.48;;;9.55;;
48765;SDS011;65794;51.836;5.002;2023-07-28T03:24:51;35.88;;;9.88;;
48765;SDS011;65794;51.836;5.002;2023-07-28T03:27:18;29.98;;;9.43;;
48765;SDS011;65794;51.836;5.002;2023-07-28T03:29:46;25.35;;;9.23;;
48765;SDS011;65794;51.836;5.002;2023-07-28T03:32:13;31.50;;;10.77;;
48765;SDS011;65794;51.836;5.002;2023-07-28T03:34:40;30.58;;;11.57;;
48765;SDS011;65794;51.836;5.002;2023-07-28T03:37:10;31.08;;;12.23;;
48765;SDS011;65794;51.836;5.002;2023-07-28T03:39:38;39.50;;;15.07;;
48765;SDS011;65794;51.836;5.002;2023-07-28T03:42:05;43.83;;;16.27;;
48765;SDS011;65794;51.836;5.002;2023-07-28T03:44:32;45.30;;;16.45;;
48765;SDS011;65794;51.836;5.002;2023-07-28T03:46:59;43.08;;;16.23;;
48765;SDS011;65794;51.836;5.002;2023-07-28T03:49:26;44.45;;;16.85;;
48765;SDS011;65794;51.836;5.002;2023-07-28T03:51:53;37.13;;;16.77;;
48765;SDS011;65794;51.836;5.002;2023-07-28T03:54:20;44.85;;;16.25;;
48765;SDS011;65794;51.836;5.002;2023-07-28T03:56:49;40.72;;;15.85;;
48765;SDS011;65794;51.836;5.002;2023-07-28T03:59:16;41.20;;;14.98;;
48765;SDS011;65794;51.836;5.002;2023-07-28T04:01:42;57.10;;;16.50;;
48765;SDS011;65794;51.836;5.002;2023-07-28T04:04:09;41.13;;;13.63;;
48765;SDS011;65794;51.836;5.002;2023-07-28T04:06:44;40.00;;;13.88;;
48765;SDS011;65794;51.836;5.002;2023-07-28T04:09:12;43.70;;;14.32;;
48765;SDS011;65794;51.836;5.002;2023-07-28T04:11:40;33.60;;;13.38;;
48765;SDS011;65794;51.836;5.002;2023-07-28T04:14:07;38.03;;;13.50;;
48765;SDS011;65794;51.836;5.002;2023-07-28T04:16:34;43.45;;;14.20;;
48765;SDS011;65794;51.836;5.002;2023-07-28T04:19:02;49.50;;;14.63;;
48765;SDS011;65794;51.836;5.002;2023-07-28T04:21:29;32.30;;;13.63;;
48765;SDS011;65794;51.836;5.002;2023-07-28T04:23:56;41.60;;;13.35;;
48765;SDS011;65794;51.836;5.002;2023-07-28T04:26:23;34.30;;;13.00;;
48765;SDS011;65794;51.836;5.002;2023-07-28T04:28:57;35.70;;;12.13;;
48765;SDS011;65794;51.836;5.002;2023-07-28T04:31:24;40.85;;;12.32;;
48765;SDS011;65794;51.836;5.002;2023-07-28T04:33:58;40.20;;;13.23;;
48765;SDS011;65794;51.836;5.002;2023-07-28T04:36:38;44.58;;;13.50;;
48765;SDS011;65794;51.836;5.002;2023-07-28T04:39:05;40.58;;;12.55;;
48765;SDS011;65794;51.836;5.002;2023-07-28T04:41:32;46.13;;;12.85;;
48765;SDS011;65794;51.836;5.002;2023-07-28T04:43:59;35.03;;;11.35;;
48765;SDS011;65794;51.836;5.002;2023-07-28T04:46:29;41.35;;;11.40;;
48765;SDS011;65794;51.836;5.002;2023-07-28T04:48:56;34.22;;;11.65;;
48765;SDS011;65794;51.836;5.002;2023-07-28T04:51:42;40.83;;;12.73;;
48765;SDS011;65794;51.836;5.002;2023-07-28T04:54:29;43.55;;;11.73;;
48765;SDS011;65794;51.836;5.002;2023-07-28T04:56:56;34.03;;;12.05;;
48765;SDS011;65794;51.836;5.002;2023-07-28T04:59:30;40.70;;;11.77;;
48765;SDS011;65794;51.836;5.002;2023-07-28T05:01:57;41.60;;;11.75;;
48765;SDS011;65794;51.836;5.002;2023-07-28T05:04:24;33.67;;;11.82;;
48765;SDS011;65794;51.836;5.002;2023-07-28T05:06:51;36.72;;;12.25;;
48765;SDS011;65794;51.836;5.002;2023-07-28T05:09:18;57.63;;;14.13;;
48765;SDS011;65794;51.836;5.002;2023-07-28T05:11:45;37.65;;;13.25;;
48765;SDS011;65794;51.836;5.002;2023-07-28T05:14:15;40.40;;;12.85;;
48765;SDS011;65794;51.836;5.002;2023-07-28T05:16:42;47.95;;;14.48;;
48765;SDS011;65794;51.836;5.002;2023-07-28T05:19:09;41.03;;;14.02;;
48765;SDS011;65794;51.836;5.002;2023-07-28T05:21:39;51.47;;;14.05;;
48765;SDS011;65794;51.836;5.002;2023-07-28T05:24:08;42.53;;;14.07;;
48765;SDS011;65794;51.836;5.002;2023-07-28T05:26:37;50.65;;;13.73;;
48765;SDS011;65794;51.836;5.002;2023-07-28T05:29:04;43.47;;;14.52;;
48765;SDS011;65794;51.836;5.002;2023-07-28T05:31:31;33.42;;;14.13;;
48765;SDS011;65794;51.836;5.002;2023-07-28T05:34:00;34.60;;;13.75;;
48765;SDS011;65794;51.836;5.002;2023-07-28T05:36:27;40.97;;;14.02;;
48765;SDS011;65794;51.836;5.002;2023-07-28T05:38:58;38.42;;;13.80;;
48765;SDS011;65794;51.836;5.002;2023-07-28T05:41:34;29.77;;;13.13;;
48765;SDS011;65794;51.836;5.002;2023-07-28T05:44:02;49.45;;;13.75;;
48765;SDS011;65794;51.836;5.002;2023-07-28T05:46:29;27.98;;;12.43;;
48765;SDS011;65794;51.836;5.002;2023-07-28T05:48:57;46.08;;;14.25;;
48765;SDS011;65794;51.836;5.002;2023-07-28T05:51:24;32.22;;;12.80;;
48765;SDS011;65794;51.836;5.002;2023-07-28T05:53:51;48.08;;;15.07;;
48765;SDS011;65794;51.836;5.002;2023-07-28T05:56:19;45.33;;;15.55;;
48765;SDS011;65794;51.836;5.002;2023-07-28T05:58:47;39.13;;;13.93;;
48765;SDS011;65794;51.836;5.002;2023-07-28T06:01:14;39.55;;;14.98;;
48765;SDS011;65794;51.836;5.002;2023-07-28T06:04:00;42.28;;;15.15;;
48765;SDS011;65794;51.836;5.002;2023-07-28T06:06:30;51.42;;;17.90;;
48765;SDS011;65794;51.836;5.002;2023-07-28T06:08:57;44.20;;;17.05;;
48765;SDS011;65794;51.836;5.002;2023-07-28T06:11:24;46.55;;;17.63;;
48765;SDS011;65794;51.836;5.002;2023-07-28T06:13:51;42.97;;;16.27;;
48765;SDS011;65794;51.836;5.002;2023-07-28T06:16:18;46.47;;;16.35;;
48765;SDS011;65794;51.836;5.002;2023-07-28T06:18:45;41.80;;;16.13;;
48765;SDS011;65794;51.836;5.002;2023-07-28T06:21:16;49.55;;;17.60;;
48765;SDS011;65794;51.836;5.002;2023-07-28T06:23:43;38.80;;;16.58;;
48765;SDS011;65794;51.836;5.002;2023-07-28T06:26:10;40.55;;;15.23;;
48765;SDS011;65794;51.836;5.002;2023-07-28T06:28:39;50.00;;;17.50;;
48765;SDS011;65794;51.836;5.002;2023-07-28T06:31:07;52.47;;;18.02;;
48765;SDS011;65794;51.836;5.002;2023-07-28T06:33:36;46.10;;;16.60;;
48765;SDS011;65794;51.836;5.002;2023-07-28T06:36:04;45.67;;;17.17;;
48765;SDS011;65794;51.836;5.002;2023-07-28T06:38:31;40.10;;;17.38;;
48765;SDS011;65794;51.836;5.002;2023-07-28T06:40:58;52.03;;;17.00;;
48765;SDS011;65794;51.836;5.002;2023-07-28T06:43:26;45.35;;;17.52;;
48765;SDS011;65794;51.836;5.002;2023-07-28T06:45:54;42.70;;;15.88;;
48765;SDS011;65794;51.836;5.002;2023-07-28T06:48:22;45.33;;;17.58;;
48765;SDS011;65794;51.836;5.002;2023-07-28T06:50:49;42.60;;;16.75;;
48765;SDS011;65794;51.836;5.002;2023-07-28T06:53:17;44.88;;;16.65;;
48765;SDS011;65794;51.836;5.002;2023-07-28T06:55:44;42.85;;;16.80;;
48765;SDS011;65794;51.836;5.002;2023-07-28T06:58:11;56.05;;;17.45;;
48765;SDS011;65794;51.836;5.002;2023-07-28T07:00:38;52.88;;;16.65;;
48765;SDS011;65794;51.836;5.002;2023-07-28T07:03:05;52.10;;;17.15;;
48765;SDS011;65794;51.836;5.002;2023-07-28T07:05:32;40.40;;;15.27;;
48765;SDS011;65794;51.836;5.002;2023-07-28T07:07:59;33.80;;;14.50;;
48765;SDS011;65794;51.836;5.002;2023-07-28T07:10:28;41.58;;;16.00;;
48765;SDS011;65794;51.836;5.002;2023-07-28T07:12:56;44.22;;;15.18;;
48765;SDS011;65794;51.836;5.002;2023-07-28T07:15:23;41.92;;;14.45;;
48765;SDS011;65794;51.836;5.002;2023-07-28T07:17:50;35.13;;;13.00;;
48765;SDS011;65794;51.836;5.002;2023-07-28T07:20:17;32.20;;;11.65;;
48765;SDS011;65794;51.836;5.002;2023-07-28T07:22:44;29.15;;;11.68;;
48765;SDS011;65794;51.836;5.002;2023-07-28T07:25:10;23.90;;;10.38;;
48765;SDS011;65794;51.836;5.002;2023-07-28T07:27:38;23.48;;;10.48;;
48765;SDS011;65794;51.836;5.002;2023-07-28T07:30:05;29.20;;;10.75;;
48765;SDS011;65794;51.836;5.002;2023-07-28T07:32:32;31.48;;;11.02;;
48765;SDS011;65794;51.836;5.002;2023-07-28T07:35:00;28.58;;;10.32;;
48765;SDS011;65794;51.836;5.002;2023-07-28T07:37:27;29.17;;;10.73;;
48765;SDS011;65794;51.836;5.002;2023-07-28T07:39:54;33.17;;;12.18;;
48765;SDS011;65794;51.836;5.002;2023-07-28T07:42:22;33.63;;;11.73;;
48765;SDS011;65794;51.836;5.002;2023-07-28T07:44:48;31.92;;;11.75;;
48765;SDS011;65794;51.836;5.002;2023-07-28T07:47:16;28.92;;;12.23;;
48765;SDS011;65794;51.836;5.002;2023-07-28T07:49:43;36.58;;;13.35;;
48765;SDS011;65794;51.836;5.002;2023-07-28T07:52:10;31.48;;;13.20;;
48765;SDS011;65794;51.836;5.002;2023-07-28T07:54:37;37.83;;;13.68;;
48765;SDS011;65794;51.836;5.002;2023-07-28T07:57:04;28.75;;;12.90;;
48765;SDS011;65794;51.836;5.002;2023-07-28T07:59:32;27.27;;;13.35;;
48765;SDS011;65794;51.836;5.002;2023-07-28T08:02:02;35.63;;;14.50;;
48765;SDS011;65794;51.836;5.002;2023-07-28T08:04:30;32.75;;;14.48;;
48765;SDS011;65794;51.836;5.002;2023-07-28T08:06:58;39.97;;;15.30;;
48765;SDS011;65794;51.836;5.002;2023-07-28T08:09:25;36.20;;;15.50;;
48765;SDS011;65794;51.836;5.002;2023-07-28T08:11:52;34.08;;;15.10;;
48765;SDS011;65794;51.836;5.002;2023-07-28T08:14:19;28.63;;;13.25;;
48765;SDS011;65794;51.836;5.002;2023-07-28T08:16:46;37.72;;;13.30;;
48765;SDS011;65794;51.836;5.002;2023-07-28T08:19:13;33.55;;;13.45;;
48765;SDS011;65794;51.836;5.002;2023-07-28T08:21:40;26.83;;;11.82;;
48765;SDS011;65794;51.836;5.002;2023-07-28T08:24:07;25.88;;;12.50;;
48765;SDS011;65794;51.836;5.002;2023-07-28T08:26:35;24.92;;;11.10;;
48765;SDS011;65794;51.836;5.002;2023-07-28T08:29:02;25.90;;;11.30;;
48765;SDS011;65794;51.836;5.002;2023-07-28T08:31:28;22.60;;;11.43;;
48765;SDS011;65794;51.836;5.002;2023-07-28T08:33:55;21.25;;;11.05;;
48765;SDS011;65794;51.836;5.002;2023-07-28T08:36:22;26.10;;;11.10;;
48765;SDS011;65794;51.836;5.002;2023-07-28T08:38:49;22.20;;;10.70;;
48765;SDS011;65794;51.836;5.002;2023-07-28T08:41:16;24.15;;;10.40;;
48765;SDS011;65794;51.836;5.002;2023-07-28T08:43:43;31.50;;;11.32;;
48765;SDS011;65794;51.836;5.002;2023-07-28T08:46:10;25.95;;;10.98;;
48765;SDS011;65794;51.836;5.002;2023-07-28T08:48:37;30.55;;;11.75;;
48765;SDS011;65794;51.836;5.002;2023-07-28T08:51:05;25.48;;;11.70;;
48765;SDS011;65794;51.836;5.002;2023-07-28T08:53:32;27.83;;;11.70;;
48765;SDS011;65794;51.836;5.002;2023-07-28T08:55:59;23.40;;;12.07;;
48765;SDS011;65794;51.836;5.002;2023-07-28T08:58:26;32.08;;;12.88;;
48765;SDS011;65794;51.836;5.002;2023-07-28T09:00:52;32.15;;;12.45;;
48765;SDS011;65794;51.836;5.002;2023-07-28T09:03:20;32.78;;;14.75;;
48765;SDS011;65794;51.836;5.002;2023-07-28T09:05:47;37.63;;;16.13;;
48765;SDS011;65794;51.836;5.002;2023-07-28T09:08:15;37.20;;;17.00;;
48765;SDS011;65794;51.836;5.002;2023-07-28T09:10:46;37.42;;;17.17;;
48765;SDS011;65794;51.836;5.002;2023-07-28T09:13:16;34.28;;;18.17;;
48765;SDS011;65794;51.836;5.002;2023-07-28T09:15:44;35.53;;;16.92;;
48765;SDS011;65794;51.836;5.002;2023-07-28T09:18:11;44.03;;;18.08;;
48765;SDS011;65794;51.836;5.002;2023-07-28T09:20:40;41.00;;;18.52;;
48765;SDS011;65794;51.836;5.002;2023-07-28T09:23:08;42.33;;;19.48;;
48765;SDS011;65794;51.836;5.002;2023-07-28T09:25:36;35.75;;;17.08;;
48765;SDS011;65794;51.836;5.002;2023-07-28T09:28:03;41.40;;;17.83;;
48765;SDS011;65794;51.836;5.002;2023-07-28T09:30:47;37.42;;;17.13;;
48765;SDS011;65794;51.836;5.002;2023-07-28T09:33:28;34.80;;;17.27;;
48765;SDS011;65794;51.836;5.002;2023-07-28T09:35:56;34.92;;;17.00;;
48765;SDS011;65794;51.836;5.002;2023-07-28T09:38:24;35.88;;;16.85;;
48765;SDS011;65794;51.836;5.002;2023-07-28T09:40:54;31.23;;;15.90;;
48765;SDS011;65794;51.836;5.002;2023-07-28T09:43:22;28.65;;;15.07;;
48765;SDS011;65794;51.836;5.002;2023-07-28T09:45:48;38.25;;;16.23;;
48765;SDS011;65794;51.836;5.002;2023-07-28T09:48:16;34.15;;;16.52;;
48765;SDS011;65794;51.836;5.002;2023-07-28T09:50:43;31.17;;;16.63;;
48765;SDS011;65794;51.836;5.002;2023-07-28T09:53:10;36.63;;;16.85;;
48765;SDS011;65794;51.836;5.002;2023-07-28T09:55:38;29.08;;;14.82;;
48765;SDS011;65794;51.836;5.002;2023-07-28T09:58:09;33.00;;;15.23;;
48765;SDS011;65794;51.836;5.002;2023-07-28T10:00:37;35.03;;;16.13;;
48765;SDS011;65794;51.836;5.002;2023-07-28T10:03:04;29.80;;;15.18;;
48765;SDS011;65794;51.836;5.002;2023-07-28T10:05:33;28.50;;;14.25;;
48765;SDS011;65794;51.836;5.002;2023-07-28T10:08:00;33.03;;;14.93;;
48765;SDS011;65794;51.836;5.002;2023-07-28T10:10:28;27.77;;;14.02;;
48765;SDS011;65794;51.836;5.002;2023-07-28T10:12:55;27.63;;;14.65;;
48765;SDS011;65794;51.836;5.002;2023-07-28T10:15:32;37.03;;;13.48;;
48765;SDS011;65794;51.836;5.002;2023-07-28T10:17:59;31.13;;;13.82;;
48765;SDS011;65794;51.836;5.002;2023-07-28T10:20:37;28.35;;;13.20;;
48765;SDS011;65794;51.836;5.002;2023-07-28T10:25:38;29.33;;;14.18;;
48765;SDS011;65794;51.836;5.002;2023-07-28T10:28:52;27.80;;;13.95;;
48765;SDS011;65794;51.836;5.002;2023-07-28T10:30:55;32.17;;;14.32;;
48765;SDS011;65794;51.836;5.002;2023-07-28T10:33:32;29.25;;;15.02;;
48765;SDS011;65794;51.836;5.002;2023-07-28T10:36:11;25.35;;;13.93;;
48765;SDS011;65794;51.836;5.002;2023-07-28T10:38:38;26.08;;;13.13;;
48765;SDS011;65794;51.836;5.002;2023-07-28T10:41:12;24.85;;;13.20;;
48765;SDS011;65794;51.836;5.002;2023-07-28T10:43:40;20.53;;;11.40;;
48765;SDS011;65794;51.836;5.002;2023-07-28T10:46:09;22.02;;;12.27;;
48765;SDS011;65794;51.836;5.002;2023-07-28T10:48:37;18.70;;;11.98;;
48765;SDS011;65794;51.836;5.002;2023-07-28T10:51:07;25.55;;;12.25;;
48765;SDS011;65794;51.836;5.002;2023-07-28T10:53:34;22.38;;;12.60;;
48765;SDS011;65794;51.836;5.002;2023-07-28T10:56:02;22.73;;;12.32;;
48765;SDS011;65794;51.836;5.002;2023-07-28T10:58:31;24.17;;;12.80;;
48765;SDS011;65794;51.836;5.002;2023-07-28T11:00:58;22.65;;;13.10;;
48765;SDS011;65794;51.836;5.002;2023-07-28T11:03:25;21.13;;;12.32;;
48765;SDS011;65794;51.836;5.002;2023-07-28T11:05:54;24.95;;;12.48;;
48765;SDS011;65794;51.836;5.002;2023-07-28T11:08:22;21.40;;;12.15;;
48765;SDS011;65794;51.836;5.002;2023-07-28T11:10:49;17.52;;;11.68;;
48765;SDS011;65794;51.836;5.002;2023-07-28T11:13:16;19.23;;;13.07;;
48765;SDS011;65794;51.836;5.002;2023-07-28T11:16:03;20.02;;;13.60;;
48765;SDS011;65794;51.836;5.002;2023-07-28T11:18:31;24.90;;;14.35;;
48765;SDS011;65794;51.836;5.002;2023-07-28T11:21:00;25.38;;;12.98;;
48765;SDS011;65794;51.836;5.002;2023-07-28T11:23:27;23.52;;;13.52;;
48765;SDS011;65794;51.836;5.002;2023-07-28T11:25:54;21.40;;;12.38;;
48765;SDS011;65794;51.836;5.002;2023-07-28T11:28:21;19.20;;;12.57;;
48765;SDS011;65794;51.836;5.002;2023-07-28T11:30:48;20.70;;;12.38;;
48765;SDS011;65794;51.836;5.002;2023-07-28T11:33:15;22.10;;;13.50;;
48765;SDS011;65794;51.836;5.002;2023-07-28T11:35:44;23.42;;;13.07;;
48765;SDS011;65794;51.836;5.002;2023-07-28T11:38:11;17.65;;;12.50;;
48765;SDS011;65794;51.836;5.002;2023-07-28T11:40:39;18.60;;;12.77;;
48765;SDS011;65794;51.836;5.002;2023-07-28T11:43:06;16.95;;;11.45;;
48765;SDS011;65794;51.836;5.002;2023-07-28T11:45:34;18.65;;;11.82;;
48765;SDS011;65794;51.836;5.002;2023-07-28T11:50:29;17.73;;;12.40;;
48765;SDS011;65794;51.836;5.002;2023-07-28T11:52:56;19.17;;;13.38;;
48765;SDS011;65794;51.836;5.002;2023-07-28T11:55:24;18.17;;;12.43;;
48765;SDS011;65794;51.836;5.002;2023-07-28T11:57:53;20.48;;;12.90;;
48765;SDS011;65794;51.836;5.002;2023-07-28T12:00:31;20.27;;;12.15;;
48765;SDS011;65794;51.836;5.002;2023-07-28T12:03:08;15.98;;;10.93;;
48765;SDS011;65794;51.836;5.002;2023-07-28T12:05:41;19.08;;;11.57;;
48765;SDS011;65794;51.836;5.002;2023-07-28T12:08:10;19.73;;;13.60;;
48765;SDS011;65794;51.836;5.002;2023-07-28T12:10:49;19.65;;;11.40;;
48765;SDS011;65794;51.836;5.002;2023-07-28T12:13:47;15.07;;;11.05;;
48765;SDS011;65794;51.836;5.002;2023-07-28T12:16:37;16.77;;;10.85;;
48765;SDS011;65794;51.836;5.002;2023-07-28T12:19:08;18.15;;;10.82;;
48765;SDS011;65794;51.836;5.002;2023-07-28T12:21:36;14.85;;;10.25;;
48765;SDS011;65794;51.836;5.002;2023-07-28T12:24:04;8.88;;;7.18;;
48765;SDS011;65794;51.836;5.002;2023-07-28T12:26:34;11.27;;;6.75;;
48765;SDS011;65794;51.836;5.002;2023-07-28T12:29:05;9.93;;;7.07;;
48765;SDS011;65794;51.836;5.002;2023-07-28T12:31:36;9.85;;;6.75;;
48765;SDS011;65794;51.836;5.002;2023-07-28T12:34:06;17.77;;;8.80;;
48765;SDS011;65794;51.836;5.002;2023-07-28T12:36:33;13.65;;;7.18;;
48765;SDS011;65794;51.836;5.002;2023-07-28T12:39:03;10.95;;;7.43;;
48765;SDS011;65794;51.836;5.002;2023-07-28T12:41:50;13.93;;;7.72;;
48765;SDS011;65794;51.836;5.002;2023-07-28T12:44:37;12.20;;;7.97;;
48765;SDS011;65794;51.836;5.002;2023-07-28T12:47:07;15.05;;;7.07;;
48765;SDS011;65794;51.836;5.002;2023-07-28T12:49:35;12.20;;;6.22;;
48765;SDS011;65794;51.836;5.002;2023-07-28T12:52:03;7.93;;;5.65;;
48765;SDS011;65794;51.836;5.002;2023-07-28T12:54:31;8.68;;;5.25;;
48765;SDS011;65794;51.836;5.002;2023-07-28T12:57:10;15.20;;;6.90;;
48765;SDS011;65794;51.836;5.002;2023-07-28T12:59:39;9.57;;;5.70;;
48765;SDS011;65794;51.836;5.002;2023-07-28T13:02:09;10.45;;;5.68;;
48765;SDS011;65794;51.836;5.002;2023-07-28T13:04:36;8.52;;;5.55;;
48765;SDS011;65794;51.836;5.002;2023-07-28T13:07:05;10.80;;;7.20;;
48765;SDS011;65794;51.836;5.002;2023-07-28T13:09:34;9.98;;;6.07;;
48765;SDS011;65794;51.836;5.002;2023-07-28T13:12:02;12.15;;;6.53;;
48765;SDS011;65794;51.836;5.002;2023-07-28T13:14:32;11.35;;;6.13;;
48765;SDS011;65794;51.836;5.002;2023-07-28T13:16:59;9.55;;;5.60;;
48765;SDS011;65794;51.836;5.002;2023-07-28T13:19:26;15.35;;;7.85;;
48765;SDS011;65794;51.836;5.002;2023-07-28T13:21:53;16.02;;;7.30;;
48765;SDS011;65794;51.836;5.002;2023-07-28T13:24:20;11.20;;;7.03;;
48765;SDS011;65794;51.836;5.002;2023-07-28T13:26:47;11.48;;;6.78;;
48765;SDS011;65794;51.836;5.002;2023-07-28T13:29:14;11.75;;;6.90;;
48765;SDS011;65794;51.836;5.002;2023-07-28T13:31:41;9.52;;;5.88;;
48765;SDS011;65794;51.836;5.002;2023-07-28T13:34:09;11.00;;;6.32;;
48765;SDS011;65794;51.836;5.002;2023-07-28T13:36:37;11.52;;;6.13;;
48765;SDS011;65794;51.836;5.002;2023-07-28T13:39:04;12.50;;;6.82;;
48765;SDS011;65794;51.836;5.002;2023-07-28T13:41:34;22.48;;;7.85;;
48765;SDS011;65794;51.836;5.002;2023-07-28T13:44:05;11.98;;;7.45;;
48765;SDS011;65794;51.836;5.002;2023-07-28T13:46:31;13.30;;;8.18;;
48765;SDS011;65794;51.836;5.002;2023-07-28T13:48:58;13.30;;;7.03;;
48765;SDS011;65794;51.836;5.002;2023-07-28T13:51:33;10.35;;;6.22;;
48765;SDS011;65794;51.836;5.002;2023-07-28T13:54:20;12.20;;;6.65;;
48765;SDS011;65794;51.836;5.002;2023-07-28T13:56:49;9.52;;;6.22;;
48765;SDS011;65794;51.836;5.002;2023-07-28T13:59:19;12.50;;;5.53;;
48765;SDS011;65794;51.836;5.002;2023-07-28T14:01:46;9.68;;;5.60;;
48765;SDS011;65794;51.836;5.002;2023-07-28T14:04:13;9.80;;;5.38;;
48765;SDS011;65794;51.836;5.002;2023-07-28T14:06:40;8.13;;;4.90;;
48765;SDS011;65794;51.836;5.002;2023-07-28T14:09:07;8.57;;;5.00;;
48765;SDS011;65794;51.836;5.002;2023-07-28T14:11:35;9.27;;;4.97;;
48765;SDS011;65794;51.836;5.002;2023-07-28T14:14:02;7.68;;;4.85;;
48765;SDS011;65794;51.836;5.002;2023-07-28T14:16:29;8.82;;;4.60;;
48765;SDS011;65794;51.836;5.002;2023-07-28T14:18:56;11.25;;;4.38;;
48765;SDS011;65794;51.836;5.002;2023-07-28T14:21:23;7.05;;;3.90;;
48765;SDS011;65794;51.836;5.002;2023-07-28T14:23:50;6.97;;;3.53;;
48765;SDS011;65794;51.836;5.002;2023-07-28T14:26:17;8.43;;;4.50;;
48765;SDS011;65794;51.836;5.002;2023-07-28T14:28:44;9.15;;;4.38;;
48765;SDS011;65794;51.836;5.002;2023-07-28T14:31:11;7.43;;;4.03;;
48765;SDS011;65794;51.836;5.002;2023-07-28T14:33:38;5.40;;;3.47;;
48765;SDS011;65794;51.836;5.002;2023-07-28T14:36:05;6.68;;;4.15;;
48765;SDS011;65794;51.836;5.002;2023-07-28T14:38:32;7.10;;;3.70;;
48765;SDS011;65794;51.836;5.002;2023-07-28T14:40:59;50.22;;;31.70;;
48765;SDS011;65794;51.836;5.002;2023-07-28T14:43:26;11.80;;;5.50;;
48765;SDS011;65794;51.836;5.002;2023-07-28T14:45:53;8.18;;;4.60;;